PST: 01:53 MST: 02:53 CST: 03:53 EST: 04:53 LDN: 09:53 UTC: 09:53
User Agent: CCBot/2.0 (https://commoncrawl.org/faq/)
IP Address: 54.163.42.154
Hostname: ec2-54-163-42-154.compute-1.amazonaws.com

METAR:
KBFI 170853Z 18006KT 10SM SCT055 10/06 A2991 RMK AO2 SLP126 60000 T01000056 51020
KBFI 170753Z 17007KT 10SM BKN050 10/06 A2990 RMK AO2 RAB41E49 SLP123 P0000 T01000061 401280067
KBFI 170653Z 18010KT 10SM SCT055 10/07 A2988 RMK AO2 SLP117 T01000067

TAF:
KBFI 170533Z 1706/1806 19007KT P6SM VCSH BKN035 OVC040
FM 170800 16009KT P6SM VCSH BKN050
FM 171600 17011KT P6SM SCT030 OVC060
FM 172200 16012G20KT P6SM -RA SCT025 OVC050

KBFI 170416Z 1704/1724 17006KT P6SM VCSH BKN040 OVC050
FM 170800 16008KT P6SM VCSH BKN025 BKN050
FM 171600 16008KT P6SM SCT035 BKN080
FM 172200 15010KT P6SM -RA SCT025 OVC050

KBFI 162323Z 1700/1724 19003KT P6SM -RA FEW040 OVC060
FM 170300 16010KT P6SM -RA BKN025 OVC040
FM 170800 16008KT P6SM VCSH BKN025 BKN050
FM 171600 16008KT P6SM SCT035 BKN080
FM 172200 15010KT P6SM -RA SCT025 OVC050

KBFI 161722Z 1618/1718 VRB03KT P6SM -RA BKN060 OVC100
FM 170000 15008KT 6SM RA BR BKN030 OVC040
FM 170300 16011KT P6SM -RA BKN025 OVC040
FM 170800 16008KT P6SM VCSH BKN025 BKN050
FM 171600 16008KT P6SM SCT035 BKN080

KBFI 161135Z 1612/1712 14008KT P6SM -RA OVC050
FM 170000 15008KT 6SM RA BR BKN030 OVC040
FM 170300 16011KT P6SM -RA BKN025 OVC040
FM 170800 16008KT P6SM VCSH BKN025 BKN050

KBFI 160524Z 1606/1706 11008KT P6SM -RA OVC080
FM 161200 14008KT P6SM -RA OVC045
FM 170000 15008KT P6SM -RA BKN025 OVC050
FM 170400 16011G18KT P6SM -RA BKN025 OVC050